createdAt,value
2023-02-08T00:01:20.952Z,71.30
2023-02-08T00:04:25.866Z,71.40
2023-02-08T00:07:29.387Z,71.40
2023-02-08T00:10:32.904Z,71.50
2023-02-08T00:13:36.381Z,71.50
2023-02-08T00:16:39.574Z,71.50
2023-02-08T00:19:44.207Z,71.50
2023-02-08T00:22:47.336Z,71.50
2023-02-08T00:25:50.900Z,71.50
2023-02-08T00:28:54.424Z,71.50
2023-02-08T00:31:57.673Z,71.50
2023-02-08T00:35:02.221Z,71.50
2023-02-08T00:38:05.908Z,71.60
2023-02-08T00:41:09.158Z,71.60
2023-02-08T00:44:12.328Z,71.60
2023-02-08T00:47:17.367Z,71.70
2023-02-08T00:50:22.257Z,71.70
2023-02-08T00:53:25.392Z,71.80
2023-02-08T00:56:28.601Z,71.80
2023-02-08T00:59:31.835Z,71.90
2023-02-08T01:02:35.030Z,72.00
2023-02-08T01:05:40.451Z,72.00
2023-02-08T01:08:45.155Z,72.00
2023-02-08T01:11:48.393Z,72.10
2023-02-08T01:14:52.660Z,72.10
2023-02-08T01:17:56.376Z,72.10
2023-02-08T01:21:09.956Z,72.10
2023-02-08T01:24:17.775Z,72.10
2023-02-08T01:27:21.004Z,72.20
2023-02-08T01:30:27.024Z,72.20
2023-02-08T01:33:30.174Z,72.20
2023-02-08T01:36:35.395Z,72.30
2023-02-08T01:39:38.911Z,72.30
2023-02-08T01:42:42.111Z,72.60
2023-02-08T01:45:45.416Z,72.50
2023-02-08T01:48:49.535Z,72.40
2023-02-08T01:52:01.604Z,72.40
2023-02-08T01:55:10.911Z,72.30
2023-02-08T01:58:15.056Z,72.30
2023-02-08T02:01:18.938Z,72.60
2023-02-08T02:04:22.957Z,72.60
2023-02-08T02:07:30.712Z,72.50
2023-02-08T02:10:36.038Z,72.60
2023-02-08T02:13:39.356Z,72.60
2023-02-08T02:16:42.669Z,72.50
2023-02-08T02:19:53.835Z,72.60
2023-02-08T02:23:37.158Z,72.50
2023-02-08T02:27:10.638Z,72.50
2023-02-08T02:30:58.556Z,72.40
2023-02-08T02:34:09.590Z,72.50
2023-02-08T02:37:27.111Z,72.30
2023-02-08T02:40:37.243Z,72.30
2023-02-08T02:43:46.573Z,72.30
2023-02-08T02:46:57.575Z,72.30
2023-02-08T02:50:08.086Z,72.40
2023-02-08T02:53:18.043Z,72.40
2023-02-08T02:56:24.557Z,72.30
2023-02-08T02:59:29.157Z,72.20
2023-02-08T03:02:32.759Z,72.20
2023-02-08T03:05:37.540Z,72.30
2023-02-08T03:09:19.390Z,72.30
2023-02-08T03:12:35.276Z,72.20
2023-02-08T03:15:50.718Z,72.00
2023-02-08T03:19:07.840Z,72.00
2023-02-08T03:22:18.278Z,72.10
2023-02-08T03:25:27.641Z,72.00
2023-02-08T03:28:36.980Z,72.00
2023-02-08T03:31:47.284Z,71.90
2023-02-08T03:34:55.129Z,71.80
2023-02-08T03:38:04.633Z,72.00
2023-02-08T03:41:11.845Z,72.00
2023-02-08T03:44:20.183Z,72.10
2023-02-08T03:47:26.464Z,72.00
2023-02-08T03:50:34.799Z,72.00
2023-02-08T03:53:43.296Z,71.80
2023-02-08T03:56:53.431Z,71.80
2023-02-08T04:00:01.142Z,71.70
2023-02-08T04:03:08.215Z,71.50
2023-02-08T04:06:11.622Z,71.30
2023-02-08T04:09:16.299Z,71.30
2023-02-08T04:12:20.089Z,71.20
2023-02-08T04:15:23.551Z,71.30
2023-02-08T04:18:26.923Z,71.30
2023-02-08T04:21:30.408Z,71.30
2023-02-08T04:24:35.231Z,71.40
2023-02-08T04:27:38.540Z,71.40
2023-02-08T04:30:43.196Z,71.50
2023-02-08T04:33:46.638Z,71.70
2023-02-08T04:36:49.984Z,71.80
2023-02-08T04:39:54.383Z,72.00
2023-02-08T04:42:57.900Z,72.10
2023-02-08T04:46:00.921Z,72.10
2023-02-08T04:49:04.187Z,72.20
2023-02-08T04:52:07.399Z,72.20
2023-02-08T04:55:12.067Z,72.20
2023-02-08T04:58:15.246Z,72.10
2023-02-08T05:01:18.461Z,72.20
2023-02-08T05:04:21.690Z,72.20
2023-02-08T05:07:25.236Z,72.20
2023-02-08T05:10:29.833Z,72.10
2023-02-08T05:13:33.048Z,72.10
2023-02-08T05:16:36.075Z,72.20
2023-02-08T05:19:39.227Z,72.20
2023-02-08T05:22:42.381Z,72.20
2023-02-08T05:25:47.019Z,72.10
2023-02-08T05:28:50.431Z,72.20
2023-02-08T05:31:53.682Z,72.20
2023-02-08T05:34:56.830Z,72.10
2023-02-08T05:38:22.613Z,72.10
2023-02-08T05:41:27.167Z,72.20
2023-02-08T05:44:30.285Z,72.10
2023-02-08T05:47:33.352Z,72.20
2023-02-08T05:50:36.559Z,72.20
2023-02-08T05:53:39.822Z,72.40
2023-02-08T05:56:44.654Z,72.50
2023-02-08T05:59:47.718Z,72.50
2023-02-08T06:02:50.882Z,72.50
2023-02-08T06:05:54.047Z,72.50
2023-02-08T06:08:57.316Z,72.20
2023-02-08T06:12:01.683Z,72.30
2023-02-08T06:15:05.085Z,72.10
2023-02-08T06:24:35.081Z,72.40
2023-02-08T06:27:39.695Z,72.50
2023-02-08T06:30:43.046Z,72.70
2023-02-08T06:33:46.321Z,72.70
2023-02-08T06:36:49.345Z,72.60
2023-02-08T06:39:52.397Z,72.60
2023-02-08T06:42:56.821Z,72.60
2023-02-08T06:46:00.055Z,72.50
2023-02-08T06:49:04.771Z,72.30
2023-02-08T06:52:07.849Z,72.20
2023-02-08T06:55:10.837Z,72.30
2023-02-08T06:58:15.397Z,72.30
2023-02-08T07:01:18.510Z,72.20
2023-02-08T07:04:21.795Z,72.10
2023-02-08T07:07:25.507Z,71.90
2023-02-08T07:10:28.689Z,71.80
2023-02-08T07:13:33.137Z,71.70
2023-02-08T07:16:36.321Z,71.70
2023-02-08T07:19:39.805Z,71.60
2023-02-08T07:22:43.569Z,71.70
2023-02-08T07:25:46.692Z,71.70
2023-02-08T07:28:52.483Z,71.50
2023-02-08T07:31:55.613Z,71.30
2023-02-08T07:34:58.879Z,71.40
2023-02-08T07:38:01.895Z,71.30
2023-02-08T07:41:06.462Z,70.80
2023-02-08T07:44:10.778Z,70.70
2023-02-08T07:47:13.940Z,70.70
2023-02-08T07:50:17.559Z,70.20
2023-02-08T07:53:20.894Z,70.40
2023-02-08T07:56:23.975Z,70.50
2023-02-08T07:59:29.878Z,70.10
2023-02-08T08:02:32.863Z,69.90
2023-02-08T08:05:35.954Z,69.50
2023-02-08T08:08:39.737Z,69.10
2023-02-08T08:11:42.922Z,69.00
2023-02-08T08:14:47.243Z,68.90
2023-02-08T08:17:50.297Z,68.20
2023-02-08T08:20:53.473Z,68.30
2023-02-08T08:23:56.499Z,68.10
2023-02-08T08:27:00.731Z,67.80
2023-02-08T08:30:06.915Z,68.10
2023-02-08T08:33:09.889Z,67.80
2023-02-08T08:36:14.346Z,67.90
2023-02-08T08:39:17.448Z,67.30
2023-02-08T08:42:21.026Z,67.50
2023-02-08T08:45:25.815Z,67.50
2023-02-08T08:48:29.216Z,67.30
2023-02-08T08:51:35.198Z,66.40
2023-02-08T08:54:38.794Z,66.30
2023-02-08T08:57:41.777Z,65.80
2023-02-08T09:00:46.383Z,65.90
2023-02-08T09:03:49.396Z,65.60
2023-02-08T09:06:53.095Z,65.40
2023-02-08T09:09:56.128Z,65.10
2023-02-08T09:12:59.267Z,65.30
2023-02-08T09:16:09.102Z,65.70
2023-02-08T09:19:12.536Z,65.80
2023-02-08T09:22:15.650Z,65.50
2023-02-08T09:25:18.725Z,65.20
2023-02-08T09:28:22.133Z,65.50
2023-02-08T09:31:28.464Z,64.80
2023-02-08T09:34:31.801Z,64.20
2023-02-08T09:37:35.104Z,64.00
2023-02-08T09:40:46.974Z,63.20
2023-02-08T09:44:01.686Z,63.40
2023-02-08T09:47:15.806Z,63.20
2023-02-08T09:50:24.018Z,62.60
2023-02-08T09:53:32.808Z,62.10
2023-02-08T09:56:40.631Z,61.70
2023-02-08T09:59:52.966Z,62.00
2023-02-08T10:03:01.203Z,62.00
2023-02-08T10:06:05.536Z,62.00
2023-02-08T10:09:14.814Z,61.20
2023-02-08T10:12:26.320Z,60.60
2023-02-08T10:15:37.487Z,60.30
2023-02-08T10:18:49.034Z,60.00
2023-02-08T10:22:04.091Z,60.30
2023-02-08T10:25:29.017Z,60.00
2023-02-08T10:28:55.525Z,59.80
2023-02-08T10:32:15.653Z,60.30
2023-02-08T10:35:27.398Z,59.30
2023-02-08T10:38:45.933Z,59.20
2023-02-08T10:41:50.095Z,59.20
2023-02-08T10:45:06.553Z,59.70
2023-02-08T10:48:21.525Z,59.10
2023-02-08T10:51:25.988Z,58.90
2023-02-08T10:54:28.963Z,58.80
2023-02-08T10:57:36.119Z,58.60
2023-02-08T11:00:41.002Z,57.90
2023-02-08T11:04:01.877Z,58.20
2023-02-08T11:07:21.001Z,57.80
2023-02-08T11:10:26.588Z,58.70
2023-02-08T11:13:36.712Z,58.10
2023-02-08T11:16:41.502Z,58.60
2023-02-08T11:19:46.353Z,58.90
2023-02-08T11:22:51.200Z,58.70
2023-02-08T11:25:55.572Z,58.70
2023-02-08T11:29:06.019Z,58.80
2023-02-08T11:32:19.433Z,58.00
2023-02-08T11:35:24.470Z,58.40
2023-02-08T11:38:29.637Z,58.10
2023-02-08T11:41:33.006Z,57.40
2023-02-08T11:44:38.126Z,57.30
2023-02-08T11:47:43.220Z,57.50
2023-02-08T11:50:46.232Z,57.70
2023-02-08T11:53:50.769Z,57.50
2023-02-08T11:57:03.802Z,57.30
2023-02-08T12:00:21.601Z,57.10
2023-02-08T12:03:31.149Z,56.70
2023-02-08T12:07:06.127Z,55.90
2023-02-08T12:10:19.548Z,56.20
2023-02-08T12:13:36.567Z,56.00
2023-02-08T12:17:00.520Z,56.50
2023-02-08T12:20:35.195Z,56.40
2023-02-08T12:23:57.648Z,56.60
2023-02-08T12:27:17.233Z,56.20
2023-02-08T12:30:28.374Z,56.30
2023-02-08T12:33:43.961Z,56.00
2023-02-08T12:37:18.749Z,56.20
2023-02-08T12:40:50.141Z,55.70
2023-02-08T12:44:02.367Z,55.80
2023-02-08T12:47:17.123Z,55.70
2023-02-08T12:50:28.052Z,56.30
2023-02-08T12:53:35.929Z,55.40
2023-02-08T12:56:46.605Z,55.20
2023-02-08T12:59:56.117Z,55.10
2023-02-08T13:03:07.367Z,55.50
2023-02-08T13:06:17.252Z,55.80
2023-02-08T13:09:35.387Z,56.20
2023-02-08T13:12:42.371Z,55.90
2023-02-08T13:15:53.138Z,56.10
2023-02-08T13:19:06.075Z,56.40
2023-02-08T13:22:09.569Z,56.30
2023-02-08T13:25:21.590Z,56.50
2023-02-08T13:28:26.872Z,56.20
2023-02-08T13:31:36.003Z,55.70
2023-02-08T13:34:44.716Z,56.00
2023-02-08T13:37:52.498Z,55.90
2023-02-08T13:41:16.405Z,55.70
2023-02-08T13:44:23.612Z,55.70
2023-02-08T13:47:30.842Z,55.60
2023-02-08T13:50:47.064Z,55.40
2023-02-08T13:54:13.419Z,54.80
2023-02-08T13:57:53.497Z,54.60
2023-02-08T14:01:14.943Z,55.30
2023-02-08T14:04:40.048Z,55.40
2023-02-08T14:07:46.140Z,55.30
2023-02-08T14:11:01.366Z,55.40
2023-02-08T14:14:07.156Z,55.80
2023-02-08T14:17:22.714Z,55.50
2023-02-08T14:20:30.656Z,55.20
2023-02-08T14:23:39.510Z,55.50
2023-02-08T14:26:43.686Z,55.50
2023-02-08T14:30:00.481Z,55.70
2023-02-08T14:33:20.029Z,55.70
2023-02-08T14:36:30.159Z,55.60
2023-02-08T14:39:35.450Z,55.50
2023-02-08T14:42:58.274Z,55.80
2023-02-08T14:46:34.412Z,55.30
2023-02-08T14:49:41.072Z,55.90
2023-02-08T14:52:53.607Z,56.00
2023-02-08T14:56:01.057Z,56.50
2023-02-08T14:59:09.052Z,56.70
2023-02-08T15:02:21.005Z,56.90
2023-02-08T15:05:26.318Z,57.00
2023-02-08T15:08:31.070Z,57.30
2023-02-08T15:11:35.561Z,57.40
2023-02-08T15:14:42.101Z,57.60
2023-02-08T15:17:48.180Z,57.50
2023-02-08T15:21:04.206Z,57.50
2023-02-08T15:24:16.827Z,57.20
2023-02-08T15:27:26.047Z,57.40
2023-02-08T15:30:40.588Z,57.30
2023-02-08T15:33:44.168Z,57.70
2023-02-08T15:36:51.266Z,57.90
2023-02-08T15:39:57.894Z,58.10
2023-02-08T15:43:05.891Z,58.50
2023-02-08T15:46:19.011Z,58.50
2023-02-08T15:49:27.847Z,58.40
2023-02-08T15:52:33.282Z,58.40
2023-02-08T15:55:48.203Z,58.80
2023-02-08T15:58:54.919Z,59.00
2023-02-08T16:02:01.686Z,59.40
2023-02-08T16:05:17.829Z,59.30
2023-02-08T16:08:24.336Z,59.80
2023-02-08T16:11:31.636Z,59.90
2023-02-08T16:14:51.608Z,60.20
2023-02-08T16:17:55.548Z,60.30
2023-02-08T16:20:59.347Z,60.50
2023-02-08T16:24:07.011Z,60.50
2023-02-08T16:27:24.920Z,60.50
2023-02-08T16:30:28.328Z,60.50
2023-02-08T16:33:32.577Z,60.70
2023-02-08T16:36:40.694Z,60.80
2023-02-08T16:40:02.407Z,60.90
2023-02-08T16:43:23.327Z,61.10
2023-02-08T16:46:27.745Z,61.40
2023-02-08T16:49:30.856Z,61.40
2023-02-08T16:52:34.605Z,61.50
2023-02-08T16:55:38.500Z,61.70
2023-02-08T16:58:48.494Z,61.90
2023-02-08T17:01:51.580Z,62.40
2023-02-08T17:04:54.658Z,62.30
2023-02-08T17:07:59.010Z,62.40
2023-02-08T17:11:05.076Z,62.40
2023-02-08T17:14:10.109Z,62.50
2023-02-08T17:17:13.499Z,62.60
2023-02-08T17:20:22.302Z,62.60
2023-02-08T17:23:25.301Z,62.90
2023-02-08T17:26:30.482Z,63.00
2023-02-08T17:29:34.869Z,63.20
2023-02-08T17:32:37.921Z,63.10
2023-02-08T17:35:41.177Z,63.20
2023-02-08T17:38:45.532Z,63.40
2023-02-08T17:41:48.688Z,63.30
2023-02-08T17:44:53.234Z,63.50
2023-02-08T17:47:57.291Z,63.60
2023-02-08T17:51:00.424Z,63.60
2023-02-08T17:54:05.816Z,63.60
2023-02-08T17:57:08.930Z,63.60
2023-02-08T18:00:16.887Z,63.90
2023-02-08T18:03:20.461Z,63.80
2023-02-08T18:06:25.045Z,63.90
2023-02-08T18:09:29.616Z,63.90
2023-02-08T18:12:32.848Z,64.00
2023-02-08T18:15:37.733Z,64.00
2023-02-08T18:18:41.384Z,64.10
2023-02-08T18:21:44.934Z,64.20
2023-02-08T18:24:48.315Z,64.20
2023-02-08T18:27:51.539Z,64.40
2023-02-08T18:31:02.422Z,64.40
2023-02-08T18:34:05.970Z,64.40
2023-02-08T18:37:11.788Z,64.50
2023-02-08T18:40:15.052Z,64.60
2023-02-08T18:43:18.585Z,64.40
2023-02-08T18:46:24.690Z,64.40
2023-02-08T18:49:27.800Z,64.40
2023-02-08T18:52:31.868Z,64.50
2023-02-08T18:55:35.182Z,64.80
2023-02-08T18:58:39.561Z,65.00
2023-02-08T19:01:48.729Z,65.10
2023-02-08T19:04:53.181Z,65.00
2023-02-08T19:07:57.415Z,65.30
2023-02-08T19:11:05.011Z,65.40
2023-02-08T19:14:11.860Z,65.60
2023-02-08T19:17:17.061Z,65.70
2023-02-08T19:20:21.613Z,65.70
2023-02-08T19:23:26.604Z,65.70
2023-02-08T19:26:36.675Z,65.70
2023-02-08T19:29:41.672Z,65.70
2023-02-08T19:32:46.549Z,65.80
2023-02-08T19:35:50.048Z,66.00
2023-02-08T19:38:54.064Z,66.10
2023-02-08T19:41:58.818Z,66.10
2023-02-08T19:45:02.612Z,66.00
2023-02-08T19:48:07.300Z,66.20
2023-02-08T19:51:10.603Z,66.20
2023-02-08T19:54:15.974Z,66.20
2023-02-08T19:57:19.202Z,66.20
2023-02-08T20:00:24.261Z,66.30
2023-02-08T20:03:29.000Z,66.40
2023-02-08T20:06:34.019Z,66.50
2023-02-08T20:09:37.701Z,66.40
2023-02-08T20:12:40.873Z,66.50
2023-02-08T20:15:44.991Z,66.50
2023-02-08T20:18:50.336Z,66.50
2023-02-08T20:21:54.220Z,66.40
2023-02-08T20:24:57.509Z,66.20
2023-02-08T20:28:01.275Z,66.20
2023-02-08T20:31:09.078Z,66.10
2023-02-08T20:34:15.769Z,66.10
2023-02-08T20:37:21.110Z,66.20
2023-02-08T20:40:24.319Z,66.10
2023-02-08T20:43:27.731Z,66.10
2023-02-08T20:46:33.843Z,66.40
2023-02-08T20:49:39.490Z,66.50
2023-02-08T20:52:45.031Z,66.40
2023-02-08T20:55:48.316Z,66.40
2023-02-08T20:58:51.975Z,66.50
2023-02-08T21:01:55.946Z,66.30
2023-02-08T21:05:00.621Z,66.30
2023-02-08T21:08:03.897Z,66.50
2023-02-08T21:11:07.589Z,66.50
2023-02-08T21:14:13.737Z,66.50
2023-02-08T21:17:16.935Z,66.50
2023-02-08T21:20:21.988Z,66.70
2023-02-08T21:23:25.375Z,66.70
2023-02-08T21:26:28.880Z,66.70
2023-02-08T21:29:32.669Z,66.60
2023-02-08T21:32:35.977Z,66.70
2023-02-08T21:35:40.894Z,66.70
2023-02-08T21:38:44.662Z,66.70
2023-02-08T21:41:48.321Z,66.70
2023-02-08T21:44:51.582Z,66.60
2023-02-08T21:47:54.783Z,66.70
2023-02-08T21:51:20.314Z,66.90
2023-02-08T21:54:44.695Z,67.00
2023-02-08T21:57:48.098Z,66.90
2023-02-08T22:00:51.409Z,66.80
2023-02-08T22:03:54.744Z,66.80
2023-02-08T22:06:59.532Z,66.70
2023-02-08T22:10:07.261Z,66.70
2023-02-08T22:13:10.470Z,66.80
2023-02-08T22:16:14.118Z,66.60
2023-02-08T22:19:17.842Z,66.60
2023-02-08T22:22:22.434Z,66.50
2023-02-08T22:25:26.012Z,66.40
2023-02-08T22:28:29.494Z,66.40
2023-02-08T22:31:33.034Z,66.50
2023-02-08T22:34:38.145Z,66.60
2023-02-08T22:37:42.963Z,66.80
2023-02-08T22:40:46.477Z,66.90
2023-02-08T22:43:50.729Z,66.70
2023-02-08T22:46:54.375Z,66.60
2023-02-08T22:49:58.984Z,66.50
2023-02-08T22:53:03.805Z,66.50
2023-02-08T22:56:07.557Z,66.60
2023-02-08T22:59:11.101Z,66.80
2023-02-08T23:02:17.159Z,66.80
2023-02-08T23:05:20.424Z,66.90
2023-02-08T23:08:25.180Z,66.80
2023-02-08T23:11:31.738Z,66.80
2023-02-08T23:14:35.832Z,66.60
2023-02-08T23:17:43.239Z,66.50
2023-02-08T23:20:47.841Z,66.50
2023-02-08T23:23:56.369Z,66.50
2023-02-08T23:26:59.999Z,66.60
2023-02-08T23:30:04.427Z,66.70
2023-02-08T23:33:08.593Z,66.80
2023-02-08T23:36:15.724Z,66.80
2023-02-08T23:39:20.833Z,66.80
2023-02-08T23:42:27.199Z,66.80
2023-02-08T23:45:30.697Z,66.50
2023-02-08T23:48:34.251Z,66.60
2023-02-08T23:51:37.721Z,66.50
2023-02-08T23:54:42.476Z,66.40
2023-02-08T23:57:47.893Z,66.50
